createdAt,value
2023-04-02T00:00:48.415Z,0.00
2023-04-02T00:01:48.451Z,0.00
2023-04-02T00:02:49.463Z,0.00
2023-04-02T00:03:48.384Z,0.00
2023-04-02T00:04:48.422Z,0.00
2023-04-02T00:05:48.391Z,0.00
2023-04-02T00:06:48.389Z,0.00
2023-04-02T00:07:48.330Z,0.00
2023-04-02T00:08:48.329Z,0.00
2023-04-02T00:09:49.232Z,0.00
2023-04-02T00:10:48.345Z,0.00
2023-04-02T00:11:48.308Z,0.00
2023-04-02T00:12:48.300Z,0.00
2023-04-02T00:13:48.302Z,0.00
2023-04-02T00:14:48.829Z,0.00
2023-04-02T00:15:48.855Z,0.00
2023-04-02T00:16:48.446Z,0.00
2023-04-02T00:17:48.364Z,0.00
2023-04-02T00:18:48.279Z,0.00
2023-04-02T00:19:49.241Z,0.00
2023-04-02T00:20:48.243Z,0.00
2023-04-02T00:21:48.265Z,0.00
2023-04-02T00:22:48.227Z,0.00
2023-04-02T00:23:48.351Z,0.00
2023-04-02T00:24:48.260Z,0.00
2023-04-02T00:25:48.931Z,0.00
2023-04-02T00:26:48.339Z,0.00
2023-04-02T00:27:48.249Z,0.00
2023-04-02T00:28:48.173Z,0.00
2023-04-02T00:29:48.168Z,0.00
2023-04-02T00:30:48.161Z,0.00
2023-04-02T00:31:48.206Z,0.00
2023-04-02T00:32:48.366Z,0.00
2023-04-02T00:33:48.170Z,0.00
2023-04-02T00:34:48.153Z,0.00
2023-04-02T00:35:48.702Z,0.00
2023-04-02T00:36:48.335Z,0.00
2023-04-02T00:37:48.258Z,0.00
2023-04-02T00:38:48.779Z,0.00
2023-04-02T00:39:48.097Z,0.00
2023-04-02T00:40:48.084Z,0.00
2023-04-02T00:41:48.101Z,0.00
2023-04-02T00:42:48.188Z,0.00
2023-04-02T00:43:48.203Z,0.00
2023-04-02T00:44:48.056Z,0.00
2023-04-02T00:45:48.093Z,0.00
2023-04-02T00:46:48.081Z,0.00
2023-04-02T00:47:48.356Z,0.00
2023-04-02T00:48:48.009Z,0.00
2023-04-02T00:49:49.107Z,0.00
2023-04-02T00:50:48.119Z,0.00
2023-04-02T00:51:48.020Z,0.00
2023-04-02T00:52:48.106Z,0.00
2023-04-02T00:53:48.140Z,0.00
2023-04-02T00:54:48.049Z,0.00
2023-04-02T00:55:47.970Z,0.00
2023-04-02T00:56:47.986Z,0.00
2023-04-02T00:57:48.078Z,0.00
2023-04-02T00:58:47.991Z,0.00
2023-04-02T00:59:47.951Z,0.00
2023-04-02T01:00:47.947Z,0.00
2023-04-02T01:01:48.044Z,0.00
2023-04-02T01:02:47.947Z,0.00
2023-04-02T01:03:47.996Z,0.00
2023-04-02T01:04:47.904Z,0.00
2023-04-02T01:05:47.908Z,0.00
2023-04-02T01:06:47.894Z,0.00
2023-04-02T01:07:47.876Z,0.00
2023-04-02T01:08:47.909Z,0.00
2023-04-02T01:09:47.857Z,0.00
2023-04-02T01:10:48.907Z,0.00
2023-04-02T01:11:47.863Z,0.00
2023-04-02T01:12:47.859Z,0.00
2023-04-02T01:13:47.829Z,0.00
2023-04-02T01:14:47.844Z,0.00
2023-04-02T01:15:48.777Z,0.00
2023-04-02T01:16:47.799Z,0.00
2023-04-02T01:17:47.836Z,0.00
2023-04-02T01:18:47.799Z,0.00
2023-04-02T01:19:47.817Z,0.00
2023-04-02T01:20:47.797Z,0.00
2023-04-02T01:21:47.763Z,0.00
2023-04-02T01:22:47.808Z,0.00
2023-04-02T01:23:47.746Z,0.00
2023-04-02T01:24:47.831Z,0.00
2023-04-02T01:25:47.775Z,0.00
2023-04-02T01:26:47.745Z,0.00
2023-04-02T01:27:47.768Z,0.00
2023-04-02T01:28:47.739Z,0.00
2023-04-02T01:29:47.785Z,0.00
2023-04-02T01:30:48.565Z,0.00
2023-04-02T01:31:47.793Z,0.00
2023-04-02T01:32:47.727Z,0.00
2023-04-02T01:33:47.786Z,0.00
2023-04-02T01:34:47.667Z,0.00
2023-04-02T01:35:47.688Z,0.00
2023-04-02T01:36:47.663Z,0.00
2023-04-02T01:37:47.649Z,0.00
2023-04-02T01:38:47.652Z,0.00
2023-04-02T01:39:47.724Z,0.00
2023-04-02T01:40:47.699Z,0.00
2023-04-02T01:41:47.657Z,0.00
2023-04-02T01:42:47.653Z,0.00
2023-04-02T01:43:48.274Z,0.00
2023-04-02T01:44:47.613Z,0.00
2023-04-02T01:45:47.613Z,0.00
2023-04-02T01:46:47.680Z,0.00
2023-04-02T01:47:47.654Z,0.00
2023-04-02T01:48:47.562Z,0.00
2023-04-02T01:49:47.587Z,0.00
2023-04-02T01:50:47.577Z,0.00
2023-04-02T01:51:47.534Z,0.00
2023-04-02T01:52:47.553Z,0.00
2023-04-02T01:53:47.539Z,0.00
2023-04-02T01:54:47.544Z,0.00
2023-04-02T01:55:47.509Z,0.00
2023-04-02T01:56:47.573Z,0.00
2023-04-02T01:57:47.553Z,0.00
2023-04-02T01:58:47.527Z,0.00
2023-04-02T01:59:47.469Z,0.00
2023-04-02T02:00:48.683Z,0.00
2023-04-02T02:01:47.504Z,0.00
2023-04-02T02:02:47.488Z,0.00
2023-04-02T02:03:47.501Z,0.00
2023-04-02T02:04:47.481Z,0.00
2023-04-02T02:05:47.429Z,0.00
2023-04-02T02:06:48.330Z,0.00
2023-04-02T02:07:47.439Z,0.00
2023-04-02T02:08:47.461Z,0.00
2023-04-02T02:09:47.522Z,0.00
2023-04-02T02:10:47.415Z,0.00
2023-04-02T02:11:48.240Z,0.00
2023-04-02T02:12:47.385Z,0.00
2023-04-02T02:13:47.438Z,0.00
2023-04-02T02:14:47.449Z,0.00
2023-04-02T02:15:47.375Z,0.00
2023-04-02T02:16:47.394Z,0.00
2023-04-02T02:17:47.368Z,0.00
2023-04-02T02:18:47.387Z,0.00
2023-04-02T02:19:47.349Z,0.00
2023-04-02T02:20:47.360Z,0.00
2023-04-02T02:21:47.326Z,0.00
2023-04-02T02:22:47.298Z,0.00
2023-04-02T02:23:47.336Z,0.00
2023-04-02T02:24:47.323Z,0.00
2023-04-02T02:25:47.286Z,0.00
2023-04-02T02:26:47.323Z,0.00
2023-04-02T02:27:47.265Z,0.00
2023-04-02T02:28:47.264Z,0.00
2023-04-02T02:29:48.196Z,0.00
2023-04-02T02:30:47.279Z,0.00
2023-04-02T02:31:47.273Z,0.00
2023-04-02T02:32:47.293Z,0.00
2023-04-02T02:33:47.288Z,0.00
2023-04-02T02:34:47.285Z,0.00
2023-04-02T02:35:47.451Z,0.00
2023-04-02T02:36:47.228Z,0.00
2023-04-02T02:37:47.186Z,0.00
2023-04-02T02:38:47.224Z,0.00
2023-04-02T02:39:47.451Z,0.00
2023-04-02T02:40:47.219Z,0.00
2023-04-02T02:41:47.836Z,0.00
2023-04-02T02:42:47.168Z,0.00
2023-04-02T02:43:47.174Z,0.00
2023-04-02T02:44:47.147Z,0.00
2023-04-02T02:45:47.192Z,0.00
2023-04-02T02:46:47.198Z,0.00
2023-04-02T02:47:47.178Z,0.00
2023-04-02T02:48:47.117Z,0.00
2023-04-02T02:49:48.141Z,0.00
2023-04-02T02:50:47.098Z,0.00
2023-04-02T02:51:47.141Z,0.00
2023-04-02T02:52:47.275Z,0.00
2023-04-02T02:53:47.141Z,0.00
2023-04-02T02:54:47.086Z,0.00
2023-04-02T02:55:47.065Z,0.00
2023-04-02T02:56:47.113Z,0.00
2023-04-02T02:57:47.223Z,0.00
2023-04-02T02:58:47.064Z,0.00
2023-04-02T02:59:47.036Z,0.00
2023-04-02T03:00:47.061Z,0.00
2023-04-02T03:01:47.118Z,0.00
2023-04-02T03:02:47.158Z,0.00
2023-04-02T03:03:47.428Z,0.00
2023-04-02T03:04:47.005Z,0.00
2023-04-02T03:05:47.001Z,0.00
2023-04-02T03:06:46.985Z,0.00
2023-04-02T03:07:47.743Z,0.00
2023-04-02T03:08:47.014Z,0.00
2023-04-02T03:09:46.996Z,0.00
2023-04-02T03:10:46.965Z,0.00
2023-04-02T03:11:47.080Z,0.00
2023-04-02T03:12:46.991Z,0.00
2023-04-02T03:13:46.969Z,0.00
2023-04-02T03:14:46.938Z,0.00
2023-04-02T03:15:47.004Z,0.00
2023-04-02T03:16:46.923Z,0.00
2023-04-02T03:17:47.028Z,0.00
2023-04-02T03:18:46.905Z,0.00
2023-04-02T03:19:46.912Z,0.00
2023-04-02T03:20:47.889Z,0.00
2023-04-02T03:21:46.895Z,0.00
2023-04-02T03:22:46.891Z,0.00
2023-04-02T03:23:46.868Z,0.00
2023-04-02T03:24:46.913Z,0.00
2023-04-02T03:25:46.992Z,0.00
2023-04-02T03:26:46.844Z,0.00
2023-04-02T03:27:46.826Z,0.00
2023-04-02T03:28:46.830Z,0.00
2023-04-02T03:29:46.807Z,0.00
2023-04-02T03:30:47.386Z,0.00
2023-04-02T03:31:46.949Z,0.00
2023-04-02T03:32:46.861Z,0.00
2023-04-02T03:33:46.822Z,0.00
2023-04-02T03:34:46.779Z,0.00
2023-04-02T03:35:47.057Z,0.00
2023-04-02T03:36:46.818Z,0.00
2023-04-02T03:37:46.792Z,0.00
2023-04-02T03:38:46.839Z,0.00
2023-04-02T03:39:46.744Z,0.00
2023-04-02T03:40:46.744Z,0.00
2023-04-02T03:41:46.792Z,0.00
2023-04-02T03:42:46.765Z,0.00
2023-04-02T03:43:46.709Z,0.00
2023-04-02T03:44:46.734Z,0.00
2023-04-02T03:45:46.718Z,0.00
2023-04-02T03:46:47.546Z,0.00
2023-04-02T04:02:55.716Z,0.00
2023-04-02T04:03:55.777Z,0.00
2023-04-02T04:04:55.731Z,0.00
2023-04-02T04:05:55.746Z,0.00
2023-04-02T04:06:55.732Z,0.00
2023-04-02T04:07:56.849Z,0.00
2023-04-02T04:08:56.793Z,0.00
2023-04-02T04:09:56.781Z,0.00
2023-04-02T04:10:57.380Z,0.00
2023-04-02T04:11:57.320Z,0.00
2023-04-02T04:12:56.841Z,0.00
2023-04-02T04:13:57.750Z,0.00
2023-04-02T04:14:56.771Z,0.00
2023-04-02T04:15:57.603Z,0.00
2023-04-02T04:16:56.853Z,0.00
2023-04-02T04:17:57.773Z,0.00
2023-04-02T04:18:56.795Z,0.00
2023-04-02T04:19:56.722Z,0.00
2023-04-02T04:20:56.939Z,0.00
2023-04-02T04:21:57.330Z,0.00
2023-04-02T04:22:56.700Z,0.00
2023-04-02T04:23:56.665Z,0.00
2023-04-02T04:24:57.797Z,0.00
2023-04-02T04:25:56.669Z,0.00
2023-04-02T04:26:56.675Z,0.00
2023-04-02T04:27:56.681Z,0.00
2023-04-02T04:28:56.677Z,0.00
2023-04-02T04:29:56.701Z,4.00
2023-04-02T04:30:56.622Z,4.00
2023-04-02T04:31:56.655Z,0.00
2023-04-02T04:32:56.664Z,4.00
2023-04-02T04:33:57.177Z,4.00
2023-04-02T04:34:56.644Z,4.00
2023-04-02T04:35:56.658Z,0.00
2023-04-02T04:36:56.619Z,4.00
2023-04-02T04:37:56.579Z,4.00
2023-04-02T04:38:57.293Z,4.00
2023-04-02T04:39:56.597Z,4.00
2023-04-02T04:40:56.598Z,8.00
2023-04-02T04:41:56.556Z,8.00
2023-04-02T04:42:56.638Z,12.00
2023-04-02T04:43:56.734Z,12.00
2023-04-02T04:44:56.527Z,16.00
2023-04-02T04:45:57.329Z,12.00
2023-04-02T04:46:56.507Z,16.00
2023-04-02T04:47:56.562Z,20.00
2023-04-02T04:48:56.865Z,24.00
2023-04-02T04:49:57.280Z,24.00
2023-04-02T04:50:56.503Z,28.00
2023-04-02T04:51:56.523Z,32.00
2023-04-02T04:52:56.455Z,36.00
2023-04-02T04:53:56.501Z,40.00
2023-04-02T04:54:57.115Z,44.00
2023-04-02T04:55:59.689Z,48.00
2023-04-02T04:56:57.433Z,56.00
2023-04-02T04:57:56.471Z,56.00
2023-04-02T04:58:56.520Z,60.00
2023-04-02T04:59:56.434Z,72.00
2023-04-02T05:00:56.471Z,76.00
2023-04-02T05:01:56.478Z,80.00
2023-04-02T05:02:56.427Z,88.00
2023-04-02T05:03:56.420Z,92.00
2023-04-02T05:04:56.469Z,92.00
2023-04-02T05:05:56.359Z,92.00
2023-04-02T05:06:56.417Z,100.00
2023-04-02T05:07:57.887Z,104.00
2023-04-02T05:08:56.401Z,104.00
2023-04-02T05:09:56.377Z,108.00
2023-04-02T05:10:56.325Z,116.00
2023-04-02T05:11:56.562Z,116.00
2023-04-02T05:12:56.314Z,116.00
2023-04-02T05:13:56.289Z,120.00
2023-04-02T05:14:56.285Z,120.00
2023-04-02T05:15:56.366Z,120.00
2023-04-02T05:16:56.284Z,132.00
2023-04-02T05:17:56.633Z,136.00
2023-04-02T05:18:56.276Z,128.00
2023-04-02T05:19:56.285Z,132.00
2023-04-02T05:20:56.238Z,136.00
2023-04-02T05:21:56.283Z,152.00
2023-04-02T05:22:57.110Z,168.00
2023-04-02T05:23:56.240Z,180.00
2023-04-02T05:24:56.224Z,184.00
2023-04-02T05:25:56.236Z,196.00
2023-04-02T05:26:56.228Z,204.00
2023-04-02T05:27:56.199Z,224.00
2023-04-02T05:28:56.343Z,256.00
2023-04-02T05:29:56.267Z,268.00
2023-04-02T05:30:56.185Z,268.00
2023-04-02T05:31:56.178Z,284.00
2023-04-02T05:32:56.232Z,292.00
2023-04-02T05:33:56.175Z,312.00
2023-04-02T05:34:56.334Z,324.00
2023-04-02T05:35:56.226Z,340.00
2023-04-02T05:36:56.155Z,340.00
2023-04-02T05:37:56.173Z,336.00
2023-04-02T05:38:56.116Z,324.00
2023-04-02T05:39:56.338Z,320.00
2023-04-02T05:40:56.103Z,324.00
2023-04-02T05:41:56.089Z,356.00
2023-04-02T05:42:56.126Z,388.00
2023-04-02T05:43:56.099Z,468.00
2023-04-02T05:44:56.080Z,568.00
2023-04-02T05:45:56.817Z,580.00
2023-04-02T05:46:56.104Z,568.00
2023-04-02T05:47:56.054Z,548.00
2023-04-02T05:48:56.034Z,528.00
2023-04-02T05:49:56.039Z,520.00
2023-04-02T05:50:56.026Z,488.00
2023-04-02T05:51:57.504Z,472.00
2023-04-02T05:52:57.011Z,460.00
2023-04-02T05:53:56.041Z,444.00
2023-04-02T05:54:56.004Z,436.00
2023-04-02T05:55:55.979Z,432.00
2023-04-02T05:56:55.990Z,436.00
2023-04-02T05:58:13.375Z,460.00
2023-04-02T05:58:58.194Z,460.00
2023-04-02T05:59:55.971Z,444.00
2023-04-02T06:00:56.054Z,460.00
2023-04-02T06:01:56.016Z,532.00
2023-04-02T06:02:56.025Z,604.00
2023-04-02T06:03:56.031Z,604.00
2023-04-02T06:04:55.956Z,576.00
2023-04-02T06:05:55.977Z,552.00
2023-04-02T06:06:55.971Z,536.00
2023-04-02T06:07:56.611Z,540.00
2023-04-02T06:08:55.898Z,572.00
2023-04-02T06:09:55.876Z,544.00
2023-04-02T06:10:55.882Z,516.00
2023-04-02T06:11:55.918Z,520.00
2023-04-02T06:12:55.859Z,528.00
2023-04-02T06:13:56.774Z,516.00
2023-04-02T06:14:55.871Z,580.00
2023-04-02T06:15:55.837Z,668.00
2023-04-02T06:16:55.872Z,748.00
2023-04-02T06:17:55.965Z,752.00
2023-04-02T06:18:55.810Z,724.00
2023-04-02T06:19:55.800Z,684.00
2023-04-02T06:20:55.862Z,708.00
2023-04-02T06:21:55.805Z,792.00
2023-04-02T06:22:55.809Z,660.00
2023-04-02T06:23:55.769Z,644.00
2023-04-02T06:24:55.778Z,708.00
2023-04-02T06:25:55.776Z,788.00
2023-04-02T06:26:55.745Z,836.00
2023-04-02T06:27:55.789Z,880.00
2023-04-02T06:28:55.767Z,1016.00
2023-04-02T06:29:55.744Z,1256.00
2023-04-02T06:30:56.360Z,1276.00
2023-04-02T06:31:55.740Z,1140.00
2023-04-02T06:32:55.852Z,1004.00
2023-04-02T06:33:55.694Z,980.00
2023-04-02T06:34:55.704Z,1000.00
2023-04-02T06:35:56.277Z,960.00
2023-04-02T06:36:56.348Z,928.00
2023-04-02T06:37:55.687Z,960.00
2023-04-02T06:38:55.686Z,964.00
2023-04-02T06:39:55.703Z,960.00
2023-04-02T06:40:58.219Z,1016.00
2023-04-02T06:41:56.299Z,980.00
2023-04-02T06:42:55.632Z,940.00
2023-04-02T06:43:55.646Z,952.00
2023-04-02T06:44:55.623Z,936.00
2023-04-02T06:45:55.679Z,944.00
2023-04-02T06:46:55.625Z,936.00
2023-04-02T06:47:55.635Z,936.00
2023-04-02T06:48:56.296Z,1004.00
2023-04-02T06:49:55.886Z,1064.00
2023-04-02T06:50:55.592Z,1044.00
2023-04-02T06:51:55.570Z,1092.00
2023-04-02T06:52:55.592Z,1236.00
2023-04-02T06:53:56.208Z,1500.00
2023-04-02T06:54:55.563Z,1744.00
2023-04-02T06:55:55.564Z,1824.00
2023-04-02T06:56:55.576Z,1820.00
2023-04-02T06:57:55.523Z,1804.00
2023-04-02T06:58:55.519Z,1752.00
2023-04-02T06:59:55.491Z,1792.00
2023-04-02T07:00:55.523Z,1820.00
2023-04-02T07:01:57.857Z,1896.00
2023-04-02T07:02:55.545Z,2252.00
2023-04-02T07:03:59.369Z,1988.00
2023-04-02T07:04:55.620Z,1788.00
2023-04-02T07:05:55.530Z,2116.00
2023-04-02T07:06:55.888Z,2288.00
2023-04-02T07:07:55.498Z,2276.00
2023-04-02T07:08:55.439Z,1968.00
2023-04-02T07:09:57.628Z,1700.00
2023-04-02T07:10:55.490Z,1648.00
2023-04-02T07:11:56.344Z,1652.00
2023-04-02T07:12:55.530Z,1688.00
2023-04-02T07:13:55.444Z,1728.00
2023-04-02T07:14:55.575Z,1904.00
2023-04-02T07:15:57.240Z,2544.00
2023-04-02T07:16:59.380Z,3244.00
2023-04-02T07:17:57.200Z,3060.00
2023-04-02T07:18:55.873Z,3128.00
2023-04-02T07:19:55.427Z,2908.00
2023-04-02T07:20:55.388Z,2568.00
2023-04-02T07:21:56.122Z,2228.00
2023-04-02T07:22:55.404Z,1820.00
2023-04-02T07:23:57.647Z,1484.00
2023-04-02T07:24:57.689Z,1392.00
2023-04-02T07:25:57.258Z,1416.00
2023-04-02T07:26:57.268Z,1364.00
2023-04-02T07:27:55.328Z,1336.00
2023-04-02T07:29:00.289Z,1364.00
2023-04-02T07:29:55.308Z,1440.00
2023-04-02T07:30:58.214Z,1448.00
2023-04-02T07:31:56.920Z,1432.00
2023-04-02T07:32:55.322Z,1472.00
2023-04-02T07:33:55.305Z,1512.00
2023-04-02T07:34:56.221Z,1544.00
2023-04-02T07:35:55.294Z,1644.00
2023-04-02T07:36:55.233Z,1852.00
2023-04-02T07:37:55.864Z,1944.00
2023-04-02T07:38:55.295Z,1904.00
2023-04-02T07:39:55.187Z,1920.00
2023-04-02T07:40:55.244Z,1992.00
2023-04-02T07:41:55.157Z,1932.00
2023-04-02T07:42:55.216Z,1736.00
2023-04-02T07:43:55.333Z,1660.00
2023-04-02T07:44:55.371Z,1676.00
2023-04-02T07:45:55.140Z,1640.00
2023-04-02T07:46:55.160Z,1620.00
2023-04-02T07:47:55.286Z,1608.00
2023-04-02T07:48:55.121Z,1600.00
2023-04-02T07:49:55.360Z,1560.00
2023-04-02T07:50:55.144Z,1568.00
2023-04-02T07:51:55.124Z,1500.00
2023-04-02T07:52:55.102Z,1468.00
2023-04-02T07:53:55.104Z,1392.00
2023-04-02T07:54:55.097Z,1336.00
2023-04-02T07:55:55.141Z,1264.00
2023-04-02T07:56:55.076Z,1288.00
2023-04-02T07:57:55.035Z,1320.00
2023-04-02T07:58:55.092Z,1348.00
2023-04-02T07:59:55.631Z,1392.00
2023-04-02T08:00:55.045Z,1456.00
2023-04-02T08:01:55.191Z,1516.00
2023-04-02T08:02:55.236Z,1492.00
2023-04-02T08:03:55.108Z,1500.00
2023-04-02T08:04:55.006Z,1520.00
2023-04-02T08:05:55.830Z,1596.00
2023-04-02T08:06:56.357Z,1720.00
2023-04-02T08:07:55.005Z,1944.00
2023-04-02T08:08:54.982Z,1972.00
2023-04-02T08:09:54.973Z,1952.00
2023-04-02T08:10:55.056Z,2080.00
2023-04-02T08:11:54.971Z,2044.00
2023-04-02T08:12:55.799Z,1884.00
2023-04-02T08:13:54.928Z,1804.00
2023-04-02T08:14:54.937Z,1832.00
2023-04-02T08:15:54.920Z,1952.00
2023-04-02T08:16:55.003Z,1992.00
2023-04-02T08:17:55.172Z,1896.00
2023-04-02T08:18:54.920Z,1776.00
2023-04-02T08:19:55.435Z,1812.00
2023-04-02T08:20:55.915Z,1824.00
2023-04-02T08:21:54.996Z,1852.00
2023-04-02T08:22:55.907Z,2144.00
2023-04-02T08:23:54.884Z,2332.00
2023-04-02T08:24:54.889Z,2360.00
2023-04-02T08:25:54.916Z,2436.00
2023-04-02T08:26:54.861Z,2460.00
2023-04-02T08:27:54.879Z,2320.00
2023-04-02T08:28:54.854Z,2280.00
2023-04-02T08:29:54.852Z,2380.00
2023-04-02T08:30:54.860Z,2408.00
2023-04-02T08:31:54.834Z,2436.00
2023-04-02T08:32:54.862Z,2368.00
2023-04-02T08:33:55.371Z,2244.00
2023-04-02T08:34:54.808Z,2220.00
2023-04-02T08:35:54.839Z,2144.00
2023-04-02T08:36:54.772Z,2052.00
2023-04-02T08:37:54.807Z,1980.00
2023-04-02T08:38:54.809Z,1996.00
2023-04-02T08:39:54.833Z,2016.00
2023-04-02T08:40:54.760Z,2052.00
2023-04-02T08:41:55.032Z,2192.00
2023-04-02T08:42:54.807Z,2356.00
2023-04-02T08:43:54.771Z,2436.00
2023-04-02T08:44:55.071Z,2900.00
2023-04-02T08:45:54.838Z,2792.00
2023-04-02T08:46:54.702Z,2580.00
2023-04-02T08:47:54.805Z,2652.00
2023-04-02T08:48:54.801Z,2464.00
2023-04-02T08:49:54.640Z,2192.00
2023-04-02T08:50:54.894Z,2040.00
2023-04-02T08:51:54.700Z,1876.00
2023-04-02T08:52:54.684Z,1704.00
2023-04-02T08:53:55.172Z,1668.00
2023-04-02T08:54:54.658Z,1776.00
2023-04-02T08:55:54.855Z,2104.00
2023-04-02T08:56:54.649Z,2216.00
2023-04-02T08:57:54.654Z,2192.00
2023-04-02T08:58:54.656Z,2256.00
2023-04-02T08:59:54.634Z,2400.00
2023-04-02T09:00:54.591Z,2596.00
2023-04-02T09:01:55.408Z,2760.00
2023-04-02T09:02:54.630Z,2732.00
2023-04-02T09:03:54.598Z,2876.00
2023-04-02T09:04:54.622Z,3000.00
2023-04-02T09:05:54.551Z,2944.00
2023-04-02T09:06:54.572Z,3024.00
2023-04-02T09:07:54.580Z,3112.00
2023-04-02T09:08:54.580Z,3704.00
2023-04-02T09:09:54.530Z,4596.00
2023-04-02T09:10:54.553Z,4988.00
2023-04-02T09:11:54.519Z,4832.00
2023-04-02T09:12:54.503Z,4048.00
2023-04-02T09:13:54.569Z,3624.00
2023-04-02T09:14:54.480Z,3200.00
2023-04-02T09:15:54.525Z,2932.00
2023-04-02T09:16:54.526Z,2936.00
2023-04-02T09:17:55.371Z,2940.00
2023-04-02T09:18:54.663Z,2792.00
2023-04-02T09:19:54.447Z,2620.00
2023-04-02T09:20:54.444Z,2464.00
2023-04-02T09:21:54.486Z,2512.00
2023-04-02T09:22:54.429Z,2508.00
2023-04-02T09:23:55.149Z,2352.00
2023-04-02T09:24:54.413Z,2304.00
2023-04-02T09:26:03.666Z,2228.00
2023-04-02T09:26:56.417Z,2216.00
2023-04-02T09:27:54.412Z,2528.00
2023-04-02T09:28:54.438Z,2648.00
2023-04-02T09:29:54.576Z,2460.00
2023-04-02T09:30:54.425Z,2424.00
2023-04-02T09:31:54.428Z,2428.00
2023-04-02T09:32:54.417Z,2436.00
2023-04-02T09:33:54.398Z,2472.00
2023-04-02T09:34:54.352Z,2568.00
2023-04-02T09:35:54.405Z,2592.00
2023-04-02T09:36:54.461Z,2700.00
2023-04-02T09:37:54.336Z,2644.00
2023-04-02T09:38:54.392Z,2672.00
2023-04-02T09:39:54.321Z,2848.00
2023-04-02T09:40:54.302Z,2900.00
2023-04-02T09:42:04.957Z,3112.00
2023-04-02T09:42:56.267Z,3432.00
2023-04-02T09:43:54.272Z,3728.00
2023-04-02T09:44:54.248Z,3612.00
2023-04-02T09:45:54.387Z,3544.00
2023-04-02T09:46:54.917Z,3696.00
2023-04-02T09:47:54.287Z,3940.00
2023-04-02T09:48:54.248Z,3956.00
2023-04-02T09:49:54.258Z,3916.00
2023-04-02T09:50:54.229Z,4076.00
2023-04-02T09:51:54.569Z,4080.00
2023-04-02T09:52:54.226Z,4204.00
2023-04-02T09:53:54.206Z,4456.00
2023-04-02T09:54:54.200Z,4364.00
2023-04-02T09:55:54.183Z,4308.00
2023-04-02T09:56:54.841Z,4052.00
2023-04-02T09:57:54.208Z,4100.00
2023-04-02T09:58:54.193Z,4532.00
2023-04-02T09:59:54.145Z,4252.00
2023-04-02T10:00:54.220Z,4196.00
2023-04-02T10:01:54.127Z,4416.00
2023-04-02T10:02:54.248Z,4796.00
2023-04-02T10:03:54.146Z,4664.00
2023-04-02T10:04:54.223Z,4252.00
2023-04-02T10:05:54.135Z,4564.00
2023-04-02T10:06:54.121Z,4368.00
2023-04-02T10:07:54.088Z,3940.00
2023-04-02T10:08:54.149Z,3828.00
2023-04-02T10:09:54.085Z,3872.00
2023-04-02T10:10:54.091Z,3888.00
2023-04-02T10:11:54.087Z,4172.00
2023-04-02T10:12:54.043Z,3972.00
2023-04-02T10:13:54.072Z,4000.00
2023-04-02T10:14:54.852Z,4004.00
2023-04-02T10:15:54.028Z,3884.00
2023-04-02T10:16:54.058Z,3916.00
2023-04-02T10:17:54.068Z,3792.00
2023-04-02T10:18:53.995Z,3752.00
2023-04-02T10:19:54.651Z,3848.00
2023-04-02T10:20:54.012Z,3964.00
2023-04-02T10:21:54.040Z,3928.00
2023-04-02T10:22:53.964Z,3800.00
2023-04-02T10:23:53.993Z,3732.00
2023-04-02T10:24:53.984Z,3852.00
2023-04-02T10:25:53.933Z,4016.00
2023-04-02T10:26:54.078Z,3928.00
2023-04-02T10:27:53.961Z,3880.00
2023-04-02T10:28:54.909Z,3768.00
2023-04-02T10:29:53.923Z,3672.00
2023-04-02T10:30:54.022Z,3568.00
2023-04-02T10:31:53.991Z,3816.00
2023-04-02T10:32:53.964Z,3916.00
2023-04-02T10:33:53.910Z,3712.00
2023-04-02T10:34:53.901Z,3660.00
2023-04-02T10:35:53.997Z,3408.00
2023-04-02T10:37:30.300Z,3332.00
2023-04-02T10:38:26.840Z,3400.00
2023-04-02T10:39:26.309Z,3252.00
2023-04-02T10:40:26.457Z,3172.00
2023-04-02T10:41:26.853Z,3156.00
2023-04-02T10:42:26.962Z,3024.00
2023-04-02T10:42:53.895Z,3028.00
2023-04-02T10:44:26.646Z,3240.00
2023-04-02T10:44:53.818Z,3328.00
2023-04-02T10:45:53.896Z,3388.00
2023-04-02T10:46:53.856Z,3448.00
2023-04-02T10:47:53.820Z,3472.00
2023-04-02T10:48:53.788Z,3392.00
2023-04-02T10:49:53.848Z,3472.00
2023-04-02T10:50:53.820Z,3536.00
2023-04-02T10:51:53.801Z,3348.00
2023-04-02T10:52:55.501Z,3396.00
2023-04-02T10:53:53.735Z,3480.00
2023-04-02T10:54:53.852Z,3820.00
2023-04-02T10:55:55.069Z,4148.00
2023-04-02T10:56:53.823Z,4024.00
2023-04-02T10:57:53.873Z,4388.00
2023-04-02T10:58:55.561Z,5300.00
2023-04-02T10:59:54.566Z,5268.00
2023-04-02T11:00:55.352Z,5360.00
2023-04-02T11:01:53.839Z,5296.00
2023-04-02T11:02:53.807Z,5640.00
2023-04-02T11:03:53.753Z,5440.00
2023-04-02T11:04:57.071Z,5472.00
2023-04-02T11:05:53.690Z,5716.00
2023-04-02T11:07:07.307Z,5556.00
2023-04-02T11:07:55.672Z,5820.00
2023-04-02T11:08:53.628Z,5700.00
2023-04-02T11:09:53.655Z,5596.00
2023-04-02T11:10:54.574Z,5552.00
2023-04-02T11:11:54.444Z,5504.00
2023-04-02T11:12:53.664Z,5556.00
2023-04-02T11:13:53.693Z,5600.00
2023-04-02T11:14:53.609Z,5136.00
2023-04-02T11:15:55.363Z,5052.00
2023-04-02T11:16:53.588Z,5276.00
2023-04-02T11:17:54.576Z,5332.00
2023-04-02T11:18:53.596Z,5280.00
2023-04-02T11:19:53.565Z,5524.00
2023-04-02T11:20:53.571Z,4852.00
2023-04-02T11:21:59.711Z,4616.00
2023-04-02T11:22:55.570Z,4964.00
2023-04-02T11:23:53.554Z,4904.00
2023-04-02T11:24:53.548Z,4612.00
2023-04-02T11:25:53.496Z,4436.00
2023-04-02T11:26:54.344Z,4168.00
2023-04-02T11:27:54.079Z,4204.00
2023-04-02T11:28:53.586Z,4176.00
2023-04-02T11:29:53.557Z,4068.00
2023-04-02T11:30:53.470Z,3808.00
2023-04-02T11:31:53.515Z,3392.00
2023-04-02T11:32:53.668Z,3132.00
2023-04-02T11:33:53.444Z,3112.00
2023-04-02T11:35:05.056Z,2968.00
2023-04-02T11:35:55.469Z,2844.00
2023-04-02T11:36:53.481Z,2788.00
2023-04-02T11:37:53.430Z,2740.00
2023-04-02T11:38:54.961Z,2712.00
2023-04-02T11:39:53.471Z,2752.00
2023-04-02T11:40:53.423Z,2768.00
2023-04-02T11:41:53.432Z,2724.00
2023-04-02T11:42:53.390Z,2672.00
2023-04-02T11:43:53.410Z,2656.00
2023-04-02T11:44:53.385Z,2680.00
2023-04-02T11:45:53.755Z,2688.00
2023-04-02T11:46:53.444Z,2768.00
2023-04-02T11:47:53.406Z,2804.00
2023-04-02T11:48:53.351Z,2804.00
2023-04-02T11:49:53.338Z,2832.00
2023-04-02T11:50:53.567Z,2896.00
2023-04-02T11:52:02.314Z,2900.00
2023-04-02T11:52:55.342Z,2948.00
2023-04-02T11:53:53.295Z,3076.00
2023-04-02T11:54:53.301Z,3088.00
2023-04-02T11:55:54.085Z,2880.00
2023-04-02T11:56:53.403Z,2780.00
2023-04-02T11:57:53.297Z,2764.00
2023-04-02T11:58:53.281Z,2796.00
2023-04-02T11:59:54.068Z,2852.00
2023-04-02T12:00:53.962Z,2924.00
2023-04-02T12:01:53.313Z,2924.00
2023-04-02T12:02:53.337Z,2864.00
2023-04-02T12:03:53.270Z,2816.00
2023-04-02T12:04:53.252Z,2804.00
2023-04-02T12:05:53.225Z,2752.00
2023-04-02T12:06:53.237Z,2704.00
2023-04-02T12:07:53.281Z,2692.00
2023-04-02T12:08:57.866Z,2708.00
2023-04-02T12:09:56.116Z,2728.00
2023-04-02T12:10:53.205Z,2680.00
2023-04-02T12:11:53.152Z,2688.00
2023-04-02T12:12:53.162Z,2708.00
2023-04-02T12:13:54.046Z,2712.00
2023-04-02T12:14:53.122Z,2732.00
2023-04-02T12:15:53.198Z,2720.00
2023-04-02T12:16:53.170Z,2748.00
2023-04-02T12:17:53.146Z,2708.00
2023-04-02T12:18:53.225Z,2736.00
2023-04-02T12:19:53.152Z,2784.00
2023-04-02T12:20:53.124Z,2860.00
2023-04-02T12:21:53.086Z,2944.00
2023-04-02T12:22:54.160Z,2952.00
2023-04-02T12:23:53.775Z,2856.00
2023-04-02T12:24:53.092Z,2888.00
2023-04-02T12:25:53.077Z,3020.00
2023-04-02T12:26:53.103Z,3148.00
2023-04-02T12:27:53.037Z,3264.00
2023-04-02T12:28:53.862Z,3244.00
2023-04-02T12:29:53.074Z,3244.00
2023-04-02T12:30:54.087Z,3276.00
2023-04-02T12:31:53.041Z,3320.00
2023-04-02T12:32:53.041Z,3280.00
2023-04-02T12:33:53.034Z,3160.00
2023-04-02T12:34:53.084Z,3032.00
2023-04-02T12:35:54.586Z,2944.00
2023-04-02T12:36:53.028Z,2920.00
2023-04-02T12:37:52.979Z,2848.00
2023-04-02T12:38:53.009Z,2828.00
2023-04-02T12:39:52.950Z,2828.00
2023-04-02T12:40:53.062Z,2864.00
2023-04-02T12:41:53.554Z,2860.00
2023-04-02T12:42:52.901Z,2812.00
2023-04-02T12:43:52.920Z,2808.00
2023-04-02T12:44:52.930Z,2752.00
2023-04-02T12:45:52.973Z,2704.00
2023-04-02T12:46:52.973Z,2648.00
2023-04-02T12:47:52.908Z,2608.00
2023-04-02T12:48:52.914Z,2596.00
2023-04-02T12:49:52.900Z,2608.00